createdAt,value
2022-10-20T00:09:10.893Z,59.45
2022-10-20T00:19:38.281Z,60.06
2022-10-20T00:30:06.419Z,60.01
2022-10-20T00:40:33.698Z,59.69
2022-10-20T00:51:03.624Z,59.90
2022-10-20T01:01:30.955Z,59.69
2022-10-20T01:12:04.121Z,59.52
2022-10-20T01:22:46.369Z,59.28
2022-10-20T01:33:23.433Z,59.41
2022-10-20T01:43:52.645Z,59.48
2022-10-20T01:54:25.052Z,59.59
2022-10-20T02:05:11.195Z,59.45
2022-10-20T02:15:42.872Z,59.27
2022-10-20T02:26:14.657Z,58.81
2022-10-20T02:36:43.526Z,59.11
2022-10-20T02:47:10.790Z,59.10
2022-10-20T02:57:38.541Z,59.37
2022-10-20T03:08:06.313Z,59.32
2022-10-20T03:18:33.677Z,59.04
2022-10-20T03:29:00.982Z,58.97
2022-10-20T03:39:28.438Z,59.02
2022-10-20T03:49:55.722Z,58.90
2022-10-20T04:00:23.593Z,59.06
2022-10-20T04:10:51.054Z,58.84
2022-10-20T04:21:18.369Z,58.78
2022-10-20T04:31:49.004Z,58.97
2022-10-20T04:42:16.702Z,58.91
2022-10-20T04:52:43.966Z,59.33
2022-10-20T05:13:44.054Z,59.92
2022-10-20T05:24:20.037Z,59.89
2022-10-20T05:34:48.860Z,59.37
2022-10-20T05:45:16.458Z,58.81
2022-10-20T05:55:43.678Z,58.94
2022-10-20T06:06:11.006Z,59.62
2022-10-20T06:16:39.349Z,59.66
2022-10-20T06:27:06.712Z,60.02
2022-10-20T06:37:34.241Z,61.36
2022-10-20T06:48:01.703Z,63.02
2022-10-20T06:58:29.862Z,64.28
2022-10-20T07:08:58.023Z,64.89
2022-10-20T07:19:25.881Z,64.65
2022-10-20T07:29:53.278Z,65.53
2022-10-20T07:40:20.855Z,66.47
2022-10-20T07:50:49.423Z,67.09
2022-10-20T08:01:17.342Z,67.03
2022-10-20T08:11:44.647Z,67.62
2022-10-20T08:22:13.107Z,68.08
2022-10-20T08:32:40.466Z,68.39
2022-10-20T08:43:08.190Z,68.00
2022-10-20T08:53:41.529Z,68.61
2022-10-20T09:04:17.328Z,68.88
2022-10-20T09:14:44.823Z,68.99
2022-10-20T09:25:17.194Z,69.24
2022-10-20T09:35:48.185Z,68.84
2022-10-20T09:46:18.645Z,68.77
2022-10-20T09:56:49.587Z,67.35
2022-10-20T10:07:33.085Z,65.80
2022-10-20T10:18:01.701Z,63.60
2022-10-20T10:28:31.537Z,62.66
2022-10-20T10:38:59.766Z,60.80
2022-10-20T10:49:45.917Z,59.83
2022-10-20T11:00:21.413Z,58.66
2022-10-20T11:10:55.645Z,57.81
2022-10-20T11:21:30.197Z,56.07
2022-10-20T11:32:04.488Z,55.56
2022-10-20T11:42:44.570Z,55.21
2022-10-20T11:53:27.750Z,54.52
2022-10-20T12:04:37.115Z,53.83
2022-10-20T12:15:19.834Z,53.38
2022-10-20T12:25:47.275Z,53.06
2022-10-20T12:36:32.928Z,52.27
2022-10-20T12:47:05.517Z,51.54
2022-10-20T12:57:38.430Z,51.11
2022-10-20T13:08:22.721Z,50.51
2022-10-20T13:18:52.960Z,49.70
2022-10-20T13:29:35.561Z,49.68
2022-10-20T13:40:22.650Z,49.03
2022-10-20T13:50:56.346Z,49.17
2022-10-20T14:01:29.862Z,48.83
2022-10-20T14:12:01.151Z,48.57
2022-10-20T14:22:28.422Z,48.58
2022-10-20T14:32:56.413Z,48.50
2022-10-20T14:43:31.790Z,49.03
2022-10-20T14:54:17.449Z,48.95
2022-10-20T15:04:45.817Z,49.26
2022-10-20T15:15:25.497Z,49.87
2022-10-20T15:25:56.100Z,50.17
2022-10-20T15:36:28.856Z,50.67
2022-10-20T15:46:56.483Z,50.95
2022-10-20T15:57:23.883Z,51.12
2022-10-20T16:07:53.133Z,50.96
2022-10-20T16:18:20.330Z,51.02
2022-10-20T16:28:47.740Z,51.72
2022-10-20T16:39:17.283Z,52.11
2022-10-20T16:49:44.633Z,52.44
2022-10-20T17:00:13.567Z,52.82
2022-10-20T17:10:42.878Z,53.13
2022-10-20T17:21:11.001Z,53.40
2022-10-20T17:31:39.481Z,53.89
2022-10-20T17:42:05.349Z,54.39
2022-10-20T17:52:32.945Z,55.11
2022-10-20T18:03:00.263Z,55.44
2022-10-20T18:13:27.578Z,55.53
2022-10-20T18:23:58.884Z,56.15
2022-10-20T18:34:26.372Z,56.14
2022-10-20T18:44:53.687Z,56.13
2022-10-20T18:55:21.061Z,56.26
2022-10-20T19:05:48.542Z,56.41
2022-10-20T19:16:18.622Z,56.17
2022-10-20T19:26:57.104Z,56.11
2022-10-20T19:37:34.850Z,56.03
2022-10-20T19:48:02.169Z,56.01
2022-10-20T19:58:29.673Z,56.21
2022-10-20T20:09:01.484Z,56.44
2022-10-20T20:19:28.852Z,56.65
2022-10-20T20:29:58.030Z,56.77
2022-10-20T20:40:25.299Z,56.95
2022-10-20T20:50:56.625Z,56.89
2022-10-20T21:01:27.472Z,57.05
2022-10-20T21:11:54.955Z,57.49
2022-10-20T21:22:22.260Z,57.54
2022-10-20T21:32:49.630Z,57.73
2022-10-20T21:43:16.906Z,57.98
2022-10-20T21:53:44.777Z,57.68
2022-10-20T22:04:12.298Z,57.68
2022-10-20T22:14:42.529Z,58.00
2022-10-20T22:25:12.910Z,58.16
2022-10-20T22:35:40.172Z,58.33
2022-10-20T22:46:08.139Z,58.40
2022-10-20T22:56:35.458Z,58.43
2022-10-20T23:07:03.047Z,58.64
2022-10-20T23:17:30.350Z,58.58
2022-10-20T23:27:57.636Z,58.90
2022-10-20T23:38:24.935Z,59.08
2022-10-20T23:48:52.384Z,59.36
2022-10-20T23:59:19.725Z,59.44
